Time;durP1;ratioP1;P1;durP2;ratioP2;P2;SDS_P1;SDS_P2;PMS_P1;PMS_P2;Temp;Humidity;BMP_temperature;BMP_pressure;BME280_temperature;BME280_humidity;BME280_pressure;Samples;Min_cycle;Max_cycle;Signal;HPM_P1;HPM_P2
2021/05/12 00:00:30;;;;;;;;;;;;;;;11.21;56.57;96259.63;1706502;83;20266;-53
2021/05/12 00:02:56;;;;;;;;;;;;;;;11.26;56.69;96251.97;1699998;83;20286;-53
2021/05/12 00:05:24;;;;;;;;;;;;;;;11.26;56.49;96254.56;1695334;83;20234;-53
2021/05/12 00:07:50;;;;;;;;;;;;;;;11.25;56.56;96248.56;1700408;83;21019;-53
2021/05/12 00:10:17;;;;;;;;;;;;;;;11.24;56.65;96245.11;1704954;83;20270;-53
2021/05/12 00:12:43;;;;;;;;;;;;;;;11.22;56.62;96247.50;1702542;83;20223;-51
2021/05/12 00:15:12;;;;;;;;;;;;;;;11.17;56.78;96241.36;1699218;83;20254;-52
2021/05/12 00:17:39;;;;;;;;;;;;;;;11.14;56.87;96239.48;1690504;83;20266;-53
2021/05/12 00:20:06;;;;;;;;;;;;;;;11.10;56.89;96242.80;1705849;83;21419;-53
2021/05/12 00:25:17;;;;;;;;;;;;;;;11.03;57.20;96230.73;1623401;86;20280;-54
2021/05/12 00:27:43;;;;;;;;;;;;;;;10.97;57.61;96230.39;1671960;83;20565;-52
2021/05/12 00:30:12;;;;;;;;;;;;;;;10.91;57.88;96227.81;1687021;83;20239;-55
2021/05/12 00:32:40;;;;;;;;;;;;;;;10.88;58.31;96228.05;1682680;84;21102;-54
2021/05/12 00:35:08;;;;;;;;;;;;;;;10.84;58.69;96226.17;1674295;84;21326;-54
2021/05/12 00:37:35;;;;;;;;;;;;;;;10.82;58.96;96219.44;1674595;83;20215;-53
2021/05/12 00:40:01;;;;;;;;;;;;;;;10.79;58.99;96221.81;1680608;83;20238;-54
2021/05/12 00:42:28;;;;;;;;;;;;;;;10.77;59.09;96215.08;1684528;84;20241;-53
2021/05/12 00:44:54;;;;;;;;;;;;;;;10.74;59.05;96207.52;1685534;83;21514;-54
2021/05/12 00:47:26;;;;;;;;;;;;;;;10.73;58.99;96211.89;1673015;83;20216;-53
2021/05/12 00:49:54;;;;;;;;;;;;;;;10.73;59.03;96208.48;1704242;80;20276;-53
2021/05/12 00:52:20;;;;;;;;;;;;;;;10.72;59.06;96205.05;1707914;83;20262;-53
2021/05/12 00:54:46;;;;;;;;;;;;;;;10.72;59.31;96206.34;1699972;83;20579;-53
2021/05/12 00:57:12;;;;;;;;;;;;;;;10.71;59.51;96203.41;1707191;83;21501;-53
2021/05/12 00:59:38;;;;;;;;;;;;;;;10.68;59.63;96201.87;1701128;83;20261;-54
2021/05/12 01:02:07;;;;;;;;;;;;;;;10.66;59.85;96202.95;1708105;83;20622;-54
2021/05/12 01:04:34;;;;;;;;;;;;;;;10.61;59.88;96195.99;1709800;83;20236;-54
2021/05/12 01:07:00;;;;;;;;;;;;;;;10.53;60.14;96190.09;1701164;83;20268;-53
2021/05/12 01:09:26;;;;;;;;;;;;;;;10.47;60.22;96195.25;1705921;83;21506;-54
2021/05/12 01:11:52;;;;;;;;;;;;;;;10.41;60.53;96188.41;1708913;83;20206;-54
2021/05/12 01:14:18;;;;;;;;;;;;;;;10.33;60.73;96186.42;1705374;83;20292;-52
2021/05/12 01:16:46;;;;;;;;;;;;;;;10.28;60.89;96182.03;1693091;83;20264;-53
2021/05/12 01:19:12;;;;;;;;;;;;;;;10.25;61.15;96179.67;1695531;83;20222;-53
2021/05/12 01:21:38;;;;;;;;;;;;;;;10.22;61.25;96178.12;1695296;83;21768;-53
2021/05/12 01:24:05;;;;;;;;;;;;;;;10.21;61.37;96175.16;1702911;83;20486;-53
2021/05/12 01:26:31;;;;;;;;;;;;;;;10.18;61.49;96169.39;1698420;83;20858;-54
2021/05/12 01:28:57;;;;;;;;;;;;;;;10.18;61.53;96166.80;1708937;83;20670;-53
2021/05/12 01:31:29;;;;;;;;;;;;;;;10.17;61.54;96164.69;1705026;83;20640;-53
2021/05/12 01:33:55;;;;;;;;;;;;;;;10.17;61.70;96165.16;1705357;83;21159;-53
2021/05/12 01:36:21;;;;;;;;;;;;;;;10.13;61.81;96161.50;1695651;83;20251;-53
2021/05/12 01:38:48;;;;;;;;;;;;;;;10.08;62.03;96158.44;1714742;83;20493;-53
2021/05/12 01:41:14;;;;;;;;;;;;;;;10.07;62.04;96161.95;1708792;83;20242;-53
2021/05/12 01:43:45;;;;;;;;;;;;;;;10.01;62.44;96149.94;1708338;83;20487;-53
2021/05/12 01:46:09;;;;;;;;;;;;;;;9.98;62.66;96157.45;1706063;83;21507;-53
2021/05/12 01:48:35;;;;;;;;;;;;;;;9.97;62.94;96156.27;1718579;81;20239;-53
2021/05/12 01:51:02;;;;;;;;;;;;;;;9.94;62.95;96155.57;1709657;82;20169;-52
2021/05/12 01:53:28;;;;;;;;;;;;;;;9.93;62.95;96159.13;1719453;82;20238;-53
2021/05/12 01:55:54;;;;;;;;;;;;;;;9.91;63.13;96152.39;1707467;82;20218;-53
2021/05/12 01:58:21;;;;;;;;;;;;;;;9.87;63.16;96151.80;1718241;82;21507;-53
2021/05/12 02:00:48;;;;;;;;;;;;;;;9.84;63.26;96146.84;1716314;82;20224;-53
2021/05/12 02:03:15;;;;;;;;;;;;;;;9.82;63.36;96154.36;1708297;82;20230;-53
2021/05/12 02:05:42;;;;;;;;;;;;;;;9.79;63.28;96153.31;1711763;82;20225;-53
2021/05/12 02:08:10;;;;;;;;;;;;;;;9.78;63.33;96142.11;1718074;82;20246;-53
2021/05/12 02:10:37;;;;;;;;;;;;;;;9.75;63.41;96144.47;1717461;82;21949;-53
2021/05/12 02:13:03;;;;;;;;;;;;;;;9.73;63.35;96145.03;1718359;82;20236;-53
2021/05/12 02:15:29;;;;;;;;;;;;;;;9.70;63.40;96134.92;1703709;82;20243;-53
2021/05/12 02:17:55;;;;;;;;;;;;;;;9.70;63.34;96137.52;1708613;82;20211;-53
2021/05/12 02:20:24;;;;;;;;;;;;;;;9.70;63.27;96139.26;1709588;82;20571;-53
2021/05/12 02:22:50;;;;;;;;;;;;;;;9.69;63.26;96141.52;1720581;82;21524;-53
2021/05/12 02:25:16;;;;;;;;;;;;;;;9.67;63.17;96142.08;1723945;82;20246;-53
2021/05/12 02:27:42;;;;;;;;;;;;;;;9.64;63.17;96135.82;1719860;82;20223;-53
2021/05/12 02:30:11;;;;;;;;;;;;;;;9.66;63.19;96141.73;1711911;82;20278;-53
2021/05/12 02:32:37;;;;;;;;;;;;;;;9.65;63.17;96143.48;1666659;83;20258;-53
2021/05/12 02:35:04;;;;;;;;;;;;;;;9.65;62.99;96140.89;1717908;83;21107;-52
2021/05/12 02:37:31;;;;;;;;;;;;;;;9.64;63.26;96135.82;1699357;83;20185;-51
2021/05/12 02:39:57;;;;;;;;;;;;;;;9.63;63.21;96134.19;1714082;83;20223;-52
2021/05/12 02:42:23;;;;;;;;;;;;;;;9.65;63.26;96133.12;1709725;83;20246;-51
2021/05/12 02:44:49;;;;;;;;;;;;;;;9.67;63.20;96128.67;1716482;83;20239;-52
2021/05/12 02:47:15;;;;;;;;;;;;;;;9.69;63.31;96129.37;1699132;83;21713;-51
2021/05/12 02:49:41;;;;;;;;;;;;;;;9.72;63.21;96127.86;1707905;83;20243;-52
2021/05/12 02:52:07;;;;;;;;;;;;;;;9.75;62.94;96126.34;1717696;83;20613;-51
2021/05/12 02:54:34;;;;;;;;;;;;;;;9.79;62.60;96128.22;1711394;83;20247;-52
2021/05/12 02:57:06;;;;;;;;;;;;;;;9.77;62.13;96123.63;1702180;83;20249;-52
2021/05/12 02:59:32;;;;;;;;;;;;;;;9.73;62.23;96115.23;1708957;80;21096;-51
2021/05/12 03:01:58;;;;;;;;;;;;;;;9.67;62.29;96120.90;1703973;83;20253;-49
2021/05/12 03:04:24;;;;;;;;;;;;;;;9.62;62.49;96116.98;1709524;83;20215;-57
2021/05/12 03:06:50;;;;;;;;;;;;;;;9.61;62.50;96123.94;1700124;83;20304;-56
2021/05/12 03:09:16;;;;;;;;;;;;;;;9.61;62.62;96117.94;1700596;83;20272;-56
2021/05/12 03:11:42;;;;;;;;;;;;;;;9.57;62.98;96117.32;1703396;83;22460;-57
2021/05/12 03:14:08;;;;;;;;;;;;;;;9.56;63.12;96113.91;1699482;83;20251;-57
2021/05/12 03:16:35;;;;;;;;;;;;;;;9.62;63.12;96118.28;1699725;83;20312;-57
2021/05/12 03:19:03;;;;;;;;;;;;;;;9.64;62.33;96121.58;1696952;83;20262;-57
2021/05/12 03:21:31;;;;;;;;;;;;;;;9.61;62.05;96114.06;1704592;83;20237;-57
2021/05/12 03:23:57;;;;;;;;;;;;;;;9.46;62.58;96110.84;1702327;83;21914;-57
2021/05/12 03:26:23;;;;;;;;;;;;;;;9.44;62.83;96112.69;1707177;83;20271;-57
2021/05/12 03:28:50;;;;;;;;;;;;;;;9.47;62.86;96114.58;1705592;83;20234;-57
2021/05/12 03:31:17;;;;;;;;;;;;;;;9.51;62.93;96113.43;1710358;82;20211;-57
2021/05/12 03:33:43;;;;;;;;;;;;;;;9.60;62.81;96106.73;1715881;81;20202;-58
2021/05/12 03:36:10;;;;;;;;;;;;;;;9.70;62.89;96103.84;1711792;81;21622;-57
2021/05/12 03:38:36;;;;;;;;;;;;;;;9.83;62.96;96103.72;1714454;81;20242;-57
2021/05/12 03:41:02;;;;;;;;;;;;;;;9.97;62.80;96102.69;1724317;82;20243;-58
2021/05/12 03:43:29;;;;;;;;;;;;;;;10.17;62.59;96106.83;1707312;81;20253;-58
2021/05/12 03:45:55;;;;;;;;;;;;;;;10.39;61.34;96107.31;1714531;81;20534;-57
2021/05/12 03:48:21;;;;;;;;;;;;;;;10.65;61.05;96101.39;1712743;82;21144;-55
2021/05/12 03:50:47;;;;;;;;;;;;;;;11.13;60.04;96104.10;1727705;81;20253;-56
2021/05/12 03:53:13;;;;;;;;;;;;;;;11.69;58.43;96106.91;1727444;81;20147;-57
2021/05/12 03:55:40;;;;;;;;;;;;;;;12.27;57.16;96106.42;1733331;81;20218;-57
2021/05/12 03:58:06;;;;;;;;;;;;;;;12.85;56.02;96099.29;1722014;81;20234;-57
2021/05/12 04:00:32;;;;;;;;;;;;;;;13.47;54.04;96097.77;1711779;81;21695;-57
2021/05/12 04:02:59;;;;;;;;;;;;;;;14.09;52.71;96091.20;1718676;81;20226;-57
2021/05/12 04:05:25;;;;;;;;;;;;;;;14.82;50.75;96095.72;1716243;81;20229;-56
2021/05/12 04:07:51;;;;;;;;;;;;;;;15.47;49.00;96086.84;1731445;81;20310;-56
2021/05/12 04:10:18;;;;;;;;;;;;;;;16.15;47.99;96088.83;1720935;82;20208;-55
2021/05/12 04:12:45;;;;;;;;;;;;;;;16.82;47.02;96085.48;1731836;81;21099;-57
2021/05/12 04:15:12;;;;;;;;;;;;;;;17.44;45.22;96087.75;1719589;81;20226;-55
2021/05/12 04:17:38;;;;;;;;;;;;;;;17.99;44.46;96092.02;1717697;81;20201;-57
2021/05/12 04:20:06;;;;;;;;;;;;;;;18.57;43.81;96091.37;1717415;81;20832;-57
2021/05/12 04:22:33;;;;;;;;;;;;;;;19.09;43.16;96086.84;1713299;82;20233;-59
2021/05/12 04:24:59;;;;;;;;;;;;;;;19.60;42.30;96086.33;1713562;81;21147;-57
2021/05/12 04:27:25;;;;;;;;;;;;;;;20.10;41.41;96094.65;1717622;82;20257;-56
2021/05/12 04:29:51;;;;;;;;;;;;;;;20.37;41.03;96090.56;1718244;82;20591;-57
2021/05/12 04:32:17;;;;;;;;;;;;;;;20.67;39.74;96084.48;1698029;82;20242;-57
2021/05/12 04:34:43;;;;;;;;;;;;;;;20.87;38.92;96082.09;1696235;84;20267;-57
2021/05/12 04:37:09;;;;;;;;;;;;;;;21.18;38.03;96078.38;1697588;84;22359;-57
2021/05/12 04:39:36;;;;;;;;;;;;;;;21.52;36.94;96075.59;1695465;84;20285;-56
2021/05/12 04:42:02;;;;;;;;;;;;;;;21.79;36.51;96075.30;1690135;84;20238;-56
2021/05/12 04:44:28;;;;;;;;;;;;;;;22.15;35.57;96076.98;1692220;83;20270;-58
2021/05/12 04:46:56;;;;;;;;;;;;;;;22.47;35.30;96073.41;1686936;82;20258;-57
2021/05/12 04:49:24;;;;;;;;;;;;;;;22.85;34.59;96068.52;1696706;84;20933;-57
2021/05/12 04:51:50;;;;;;;;;;;;;;;23.21;33.73;96070.08;1701719;83;20188;-57
2021/05/12 04:54:16;;;;;;;;;;;;;;;23.57;32.69;96066.74;1697347;84;20256;-56
2021/05/12 04:56:43;;;;;;;;;;;;;;;23.66;32.87;96066.34;1678057;84;20607;-56
2021/05/12 04:59:09;;;;;;;;;;;;;;;23.92;32.54;96059.97;1707925;84;20247;-56
2021/05/12 05:01:35;;;;;;;;;;;;;;;24.18;31.85;96067.87;1700653;83;21381;-57
2021/05/12 05:04:02;;;;;;;;;;;;;;;24.41;30.92;96064.76;1703638;84;20160;-56
2021/05/12 05:06:28;;;;;;;;;;;;;;;24.48;30.77;96063.41;1695319;84;20235;-56
2021/05/12 05:08:54;;;;;;;;;;;;;;;24.74;30.75;96053.77;1698232;83;20247;-56
2021/05/12 05:11:21;;;;;;;;;;;;;;;25.01;29.98;96058.95;1703231;84;20399;-56
2021/05/12 05:13:47;;;;;;;;;;;;;;;25.23;29.74;96049.64;1696515;84;21506;-57
2021/05/12 05:16:13;;;;;;;;;;;;;;;25.48;29.97;96047.03;1705616;83;20581;-58
2021/05/12 05:18:39;;;;;;;;;;;;;;;25.85;29.64;96047.13;1679368;84;20236;-56
2021/05/12 05:21:06;;;;;;;;;;;;;;;26.28;28.91;96043.39;1698471;84;20263;-56
2021/05/12 05:23:35;;;;;;;;;;;;;;;26.65;28.26;96042.91;1699070;84;20597;-53
2021/05/12 05:26:02;;;;;;;;;;;;;;;26.96;28.56;96039.23;1705853;83;21514;-56
2021/05/12 05:28:28;;;;;;;;;;;;;;;27.27;28.17;96033.88;1707392;84;20260;-56
2021/05/12 05:30:54;;;;;;;;;;;;;;;27.58;27.46;96032.81;1700462;83;20241;-56
2021/05/12 05:33:39;;;;;;;;;;;;;;;27.82;27.37;96030.99;1694078;81;20259;-56
2021/05/12 05:36:24;;;;;;;;;;;;;;;28.13;26.95;96026.39;1703443;84;20247;-56
2021/05/12 05:39:10;;;;;;;;;;;;;;;28.33;24.36;96034.02;1655595;85;21469;-57
2021/05/12 05:41:55;;;;;;;;;;;;;;;27.68;24.05;96034.92;1656638;85;20310;-56
2021/05/12 05:44:40;;;;;;;;;;;;;;;26.52;25.02;96037.19;1682819;84;20223;-56
2021/05/12 05:47:26;;;;;;;;;;;;;;;25.45;25.67;96036.04;1704063;83;20272;-57
2021/05/12 05:50:11;;;;;;;;;;;;;;;24.42;27.22;96038.56;1707300;84;20271;-56
2021/05/12 05:52:56;;;;;;;;;;;;;;;23.99;27.37;96035.08;1693222;84;21509;-54
2021/05/12 05:55:41;;;;;;;;;;;;;;;23.57;28.52;96024.38;1698567;84;20252;-56
2021/05/12 05:58:25;;;;;;;;;;;;;;;23.01;28.96;96038.25;1691290;84;20237;-57
2021/05/12 06:01:11;;;;;;;;;;;;;;;22.24;30.33;96036.99;1661804;84;20650;-55
2021/05/12 06:03:38;;;;;;;;;;;;;;;21.49;30.96;96028.75;1663242;84;20215;-54
2021/05/12 06:06:22;;;;;;;;;;;;;;;21.03;32.12;96025.67;1676019;84;21559;-56
2021/05/12 06:09:06;;;;;;;;;;;;;;;;;;1691177;84;20745;-56
2021/05/12 06:11:52;;;;;;;;;;;;;;;20.96;32.85;96019.02;1694835;84;20210;-56
2021/05/12 06:14:37;;;;;;;;;;;;;;;21.27;32.22;96012.62;1699508;84;20807;-55
2021/05/12 06:17:21;;;;;;;;;;;;;;;21.31;32.41;96009.90;1691859;84;20275;-56
2021/05/12 06:20:08;;;;;;;;;;;;;;;21.28;32.90;96008.95;1698670;84;21435;-56
2021/05/12 06:23:01;;;;;;;;;;;;;;;21.22;31.79;96011.05;1691851;84;20250;-57
2021/05/12 06:25:46;;;;;;;;;;;;;;;20.74;32.82;96012.88;1696227;84;20270;-58
2021/05/12 06:28:30;;;;;;;;;;;;;;;20.74;34.46;96012.41;1690167;84;20252;-59
2021/05/12 06:31:15;;;;;;;;;;;;;;;21.01;33.86;96008.72;1690372;84;20272;-59
2021/05/12 06:34:01;;;;;;;;;;;;;;;20.91;32.98;96005.06;1724668;81;21504;-55
2021/05/12 06:36:46;;;;;;;;;;;;;;;20.16;33.11;96008.82;1718638;81;20225;-59
2021/05/12 06:39:30;;;;;;;;;;;;;;;19.62;35.54;96008.52;1722362;82;20250;-58
2021/05/12 06:41:57;;;;;;;;;;;;;;;19.68;36.12;96002.55;1720756;81;20237;-58
2021/05/12 06:44:24;;;;;;;;;;;;;;;19.92;36.56;96006.79;1728039;81;20272;-59
2021/05/12 06:46:52;;;;;;;;;;;;;;;20.23;35.37;96004.47;1720650;81;21471;-60
2021/05/12 06:49:19;;;;;;;;;;;;;;;20.38;35.27;96009.72;1702856;82;20246;-59
2021/05/12 06:51:47;;;;;;;;;;;;;;;20.29;35.90;96002.91;1724305;81;20218;-58
2021/05/12 06:54:16;;;;;;;;;;;;;;;20.03;35.63;96001.08;1714364;82;20182;-61
2021/05/12 06:56:46;;;;;;;;;;;;;;;20.00;36.34;96003.23;1723440;81;20213;-61
2021/05/12 06:59:13;;;;;;;;;;;;;;;20.10;35.51;95996.38;1715301;81;21149;-62
2021/05/12 07:01:39;;;;;;;;;;;;;;;20.09;35.78;96011.36;1722997;82;20574;-61
2021/05/12 07:04:06;;;;;;;;;;;;;;;19.98;36.18;96006.07;1729118;81;20227;-61
2021/05/12 07:06:33;;;;;;;;;;;;;;;19.81;36.29;96000.14;1721122;81;20529;-59
2021/05/12 07:08:59;;;;;;;;;;;;;;;19.63;36.33;96016.24;1718531;81;20521;-59
2021/05/12 07:11:26;;;;;;;;;;;;;;;19.40;37.28;96008.39;1720468;82;21160;-60
2021/05/12 07:13:52;;;;;;;;;;;;;;;19.48;37.54;95999.11;1721069;82;20207;-60
2021/05/12 07:16:19;;;;;;;;;;;;;;;19.66;36.94;96019.84;1718357;81;20226;-60
2021/05/12 07:18:46;;;;;;;;;;;;;;;19.68;36.96;96011.77;1722588;81;20262;-58
2021/05/12 07:21:12;;;;;;;;;;;;;;;19.56;36.91;96004.80;1728983;81;20230;-58
2021/05/12 07:23:42;;;;;;;;;;;;;;;19.52;38.33;96010.09;1718403;81;21607;-59
2021/05/12 07:26:06;;;;;;;;;;;;;;;19.57;38.13;96026.66;1712733;81;20182;-58
2021/05/12 07:28:32;;;;;;;;;;;;;;;19.59;37.25;96003.14;1724662;81;20146;-59
2021/05/12 07:30:58;;;;;;;;;;;;;;;19.60;38.41;96001.31;1725882;81;20185;-59
2021/05/12 07:33:25;;;;;;;;;;;;;;;19.64;38.05;96008.67;1712439;82;20256;-59
2021/05/12 07:35:51;;;;;;;;;;;;;;;19.68;38.02;96009.13;1694021;84;21546;-59
2021/05/12 07:38:17;;;;;;;;;;;;;;;19.72;37.15;96010.90;1694469;83;20195;-59
2021/05/12 07:40:43;;;;;;;;;;;;;;;19.60;37.83;96008.70;1699016;84;20279;-59
2021/05/12 07:43:11;;;;;;;;;;;;;;;19.61;38.89;96011.66;1704379;84;20235;-59
2021/05/12 07:45:38;;;;;;;;;;;;;;;19.79;38.09;96013.19;1695538;84;20268;-59
2021/05/12 07:48:11;;;;;;;;;;;;;;;20.00;38.75;96019.02;1690942;84;21470;-58
2021/05/12 07:50:38;;;;;;;;;;;;;;;20.20;38.11;96013.55;1695334;84;20657;-59
2021/05/12 07:53:07;;;;;;;;;;;;;;;20.35;37.45;96016.16;1692126;84;20287;-58
2021/05/12 07:55:33;;;;;;;;;;;;;;;20.40;37.64;96028.80;1695736;83;20250;-59
2021/05/12 07:57:59;;;;;;;;;;;;;;;20.33;36.75;96016.86;1694582;84;20242;-56
2021/05/12 08:00:25;;;;;;;;;;;;;;;20.16;37.16;96004.36;1692108;84;21461;-61
2021/05/12 08:02:52;;;;;;;;;;;;;;;20.02;37.99;96009.96;1685564;84;20260;-61
2021/05/12 08:05:18;;;;;;;;;;;;;;;19.99;37.73;96017.41;1696058;84;20250;-61
2021/05/12 08:07:44;;;;;;;;;;;;;;;19.97;37.62;96028.63;1700802;83;20248;-59
2021/05/12 08:10:12;;;;;;;;;;;;;;;19.95;38.05;96022.70;1700085;84;20254;-59
2021/05/12 08:12:38;;;;;;;;;;;;;;;19.99;38.65;96022.17;1694491;84;21489;-59
2021/05/12 08:15:05;;;;;;;;;;;;;;;20.14;38.60;96025.31;1675641;84;21317;-60
2021/05/12 08:17:32;;;;;;;;;;;;;;;20.23;38.00;96002.65;1691662;84;20291;-60
2021/05/12 08:19:59;;;;;;;;;;;;;;;20.33;38.00;95994.46;1694723;83;20243;-61
2021/05/12 08:22:25;;;;;;;;;;;;;;;20.39;37.23;96005.59;1669570;84;20242;-59
2021/05/12 08:24:52;;;;;;;;;;;;;;;20.40;36.96;96006.40;1705567;83;21701;-59
2021/05/12 08:27:18;;;;;;;;;;;;;;;20.41;36.67;95985.14;1699988;83;20263;-60
2021/05/12 08:29:44;;;;;;;;;;;;;;;20.51;37.54;95997.19;1701368;84;20275;-60
2021/05/12 08:32:12;;;;;;;;;;;;;;;20.77;37.66;95991.42;1692291;84;20312;-58
2021/05/12 08:34:38;;;;;;;;;;;;;;;20.99;35.75;95986.16;1690450;83;20242;-60
2021/05/12 08:37:04;;;;;;;;;;;;;;;20.94;35.52;95995.47;1677678;84;22565;-59
2021/05/12 08:39:31;;;;;;;;;;;;;;;20.84;35.90;95981.78;1687544;84;20266;-59
2021/05/12 08:41:57;;;;;;;;;;;;;;;20.81;36.86;96004.56;1696288;84;20307;-59
2021/05/12 08:44:23;;;;;;;;;;;;;;;20.80;35.30;95992.88;1694044;83;20797;-60
2021/05/12 08:46:49;;;;;;;;;;;;;;;20.71;36.15;96006.18;1690422;84;20210;-60
2021/05/12 08:49:17;;;;;;;;;;;;;;;20.63;35.79;95990.48;1692914;84;21573;-60
2021/05/12 08:51:43;;;;;;;;;;;;;;;20.55;36.17;95984.78;1698987;84;20236;-59
2021/05/12 08:54:10;;;;;;;;;;;;;;;20.62;37.07;95971.67;1704515;84;20234;-60
2021/05/12 08:56:36;;;;;;;;;;;;;;;20.92;36.82;95968.48;1699229;84;20232;-59
2021/05/12 08:59:03;;;;;;;;;;;;;;;21.29;35.67;95964.42;1692574;84;20225;-58
2021/05/12 09:01:29;;;;;;;;;;;;;;;21.32;35.49;95954.81;1695403;84;21468;-59
2021/05/12 09:03:55;;;;;;;;;;;;;;;21.34;36.86;95951.47;1694100;84;20232;-59
2021/05/12 09:06:22;;;;;;;;;;;;;;;21.46;36.32;95946.00;1686976;84;20751;-59
2021/05/12 09:08:48;;;;;;;;;;;;;;;21.57;36.03;95939.39;1691521;83;20234;-60
2021/05/12 09:11:14;;;;;;;;;;;;;;;21.53;35.80;95942.59;1691293;84;20239;-59
2021/05/12 09:13:47;;;;;;;;;;;;;;;21.55;36.61;95943.25;1694340;83;21450;-59
2021/05/12 09:16:31;;;;;;;;;;;;;;;21.75;36.20;95938.89;1703732;83;20214;-59
2021/05/12 09:19:07;;;;;;;;;;;;;;;21.83;35.49;95936.09;1693204;84;20243;-59
2021/05/12 09:21:53;;;;;;;;;;;;;;;21.79;34.72;95944.11;1698284;84;20562;-60
2021/05/12 09:24:22;;;;;;;;;;;;;;;21.67;35.84;95951.73;1685959;84;20270;-59
2021/05/12 09:26:50;;;;;;;;;;;;;;;21.52;36.07;95933.88;1695495;84;22185;-59
2021/05/12 09:29:32;;;;;;;;;;;;;;;21.38;35.69;95942.19;1695939;83;20632;-59
2021/05/12 09:32:07;;;;;;;;;;;;;;;21.42;36.42;95932.86;1700282;84;20258;-60
2021/05/12 09:34:57;;;;;;;;;;;;;;;21.67;35.68;95932.44;1710248;82;20178;-60
2021/05/12 09:37:34;;;;;;;;;;;;;;;21.66;35.00;95945.32;1710067;82;20212;-59
2021/05/12 09:40:08;;;;;;;;;;;;;;;21.59;35.49;95937.87;1719844;81;20230;-59
2021/05/12 09:42:39;;;;;;;;;;;;;;;21.62;34.94;95941.45;1715617;82;20249;-59
2021/05/12 09:45:19;;;;;;;;;;;;;;;21.64;35.18;95941.55;1712769;82;20240;-59
2021/05/12 09:47:46;;;;;;;;;;;;;;;21.61;36.35;95940.64;1721138;81;20568;-58
2021/05/12 09:50:21;;;;;;;;;;;;;;;21.71;35.38;95925.78;1723204;82;20562;-59
2021/05/12 09:52:53;;;;;;;;;;;;;;;21.76;36.48;95921.21;1723635;81;21575;-59
2021/05/12 09:55:19;;;;;;;;;;;;;;;21.85;34.62;95927.98;1725685;81;20215;-59
2021/05/12 09:58:04;;;;;;;;;;;;;;;21.77;34.33;95926.81;1714586;81;20276;-59
2021/05/12 10:00:33;;;;;;;;;;;;;;;21.58;34.98;95921.23;1721964;81;20219;-59
2021/05/12 10:03:00;;;;;;;;;;;;;;;21.52;36.28;95920.67;1723382;81;20228;-59
2021/05/12 10:05:26;;;;;;;;;;;;;;;21.71;35.70;95913.90;1720494;82;21479;-58
2021/05/12 10:07:53;;;;;;;;;;;;;;;21.88;35.85;95919.16;1717093;81;20222;-59
2021/05/12 10:10:39;;;;;;;;;;;;;;;21.96;34.77;95911.58;1723060;81;20229;-59
2021/05/12 10:13:05;;;;;;;;;;;;;;;21.81;34.80;95908.23;1714898;81;20256;-60
2021/05/12 10:15:32;;;;;;;;;;;;;;;21.64;34.73;95916.98;1715176;81;20233;-60
2021/05/12 10:17:58;;;;;;;;;;;;;;;21.50;36.23;95924.02;1726952;81;21684;-60
2021/05/12 10:20:24;;;;;;;;;;;;;;;21.46;35.10;95938.56;1723954;81;20206;-59
2021/05/12 10:22:53;;;;;;;;;;;;;;;21.41;34.63;95923.30;1716514;81;20212;-59
2021/05/12 10:25:19;;;;;;;;;;;;;;;21.37;35.33;95920.75;1725321;81;20237;-61
2021/05/12 10:27:50;;;;;;;;;;;;;;;21.39;35.79;95917.92;1727102;81;20554;-59
2021/05/12 10:30:17;;;;;;;;;;;;;;;21.49;36.87;95923.70;1725302;81;21153;-60
2021/05/12 10:32:49;;;;;;;;;;;;;;;21.71;36.00;95919.18;1720915;81;20222;-61
2021/05/12 10:35:15;;;;;;;;;;;;;;;21.71;35.49;95913.06;1701506;82;20268;-58
2021/05/12 10:37:46;;;;;;;;;;;;;;;21.62;35.92;95913.22;1687550;84;20761;-59
2021/05/12 10:40:19;;;;;;;;;;;;;;;21.54;35.44;95913.38;1696033;84;20236;-60
2021/05/12 10:43:11;;;;;;;;;;;;;;;21.49;36.61;95914.46;1690016;84;22114;-60
2021/05/12 10:45:56;;;;;;;;;;;;;;;21.50;36.39;95918.23;1695676;83;20219;-59
2021/05/12 10:48:40;;;;;;;;;;;;;;;21.57;37.61;95922.23;1690135;84;20319;-59
2021/05/12 10:51:24;;;;;;;;;;;;;;;21.61;36.54;95908.97;1699699;84;20260;-60
2021/05/12 10:53:51;;;;;;;;;;;;;;;21.45;37.30;95919.28;1700479;84;20310;-60
2021/05/12 10:56:18;;;;;;;;;;;;;;;21.40;37.80;95919.53;1686484;83;21434;-59
2021/05/12 10:58:59;;;;;;;;;;;;;;;21.41;38.86;95918.02;1697127;84;20185;-60
2021/05/12 11:01:27;;;;;;;;;;;;;;;21.35;40.51;95912.22;1703486;84;20555;-60
2021/05/12 11:03:57;;;;;;;;;;;;;;;21.31;40.01;95901.21;1695210;84;20260;-59
2021/05/12 11:06:35;;;;;;;;;;;;;;;21.46;40.99;95909.53;1695127;84;20272;-60
2021/05/12 11:09:09;;;;;;;;;;;;;;;21.58;39.85;95897.48;1700198;83;21304;-60
2021/05/12 11:11:51;;;;;;;;;;;;;;;21.54;41.16;95909.41;1695920;83;20268;-60
2021/05/12 11:14:32;;;;;;;;;;;;;;;21.48;42.77;95904.42;1697575;84;20256;-60
2021/05/12 11:17:15;;;;;;;;;;;;;;;21.54;41.93;95923.13;1689181;84;20548;-59
2021/05/12 11:19:49;;;;;;;;;;;;;;;21.42;41.98;95889.83;1692292;84;20656;-59
2021/05/12 11:22:38;;;;;;;;;;;;;;;21.37;43.24;95906.23;1695762;84;21840;-58
2021/05/12 11:32:54;;;;;;;;;;;;;;;21.09;43.50;95887.27;1679289;84;20246;-58
2021/05/12 11:35:20;;;;;;;;;;;;;;;21.09;44.48;95888.58;1722922;82;21469;-58
2021/05/12 11:37:47;;;;;;;;;;;;;;;21.17;45.00;95896.87;1727510;81;20281;-58
2021/05/12 11:40:13;;;;;;;;;;;;;;;21.13;44.23;95882.41;1717082;81;20219;-60
2021/05/12 11:42:39;;;;;;;;;;;;;;;21.17;45.28;95886.31;1724462;81;20217;-59
2021/05/12 11:45:08;;;;;;;;;;;;;;;21.22;44.12;95881.28;1731095;82;20235;-58
2021/05/12 11:47:36;;;;;;;;;;;;;;;21.00;44.63;95898.14;1719021;82;21316;-58
2021/05/12 11:50:02;;;;;;;;;;;;;;;20.81;45.22;95876.70;1728311;81;20266;-59
2021/05/12 11:52:29;;;;;;;;;;;;;;;20.82;45.76;95873.55;1711076;82;20563;-58
2021/05/12 11:55:04;;;;;;;;;;;;;;;20.87;45.18;95889.12;1717920;81;20654;-59
2021/05/12 11:57:31;;;;;;;;;;;;;;;20.87;44.75;95889.61;1723402;81;20261;-59
2021/05/12 12:00:02;;;;;;;;;;;;;;;20.74;45.32;95881.08;1722648;81;21464;-59
2021/05/12 12:02:25;;;;;;;;;;;;;;;20.68;44.84;95856.81;1722984;82;20788;-59
2021/05/12 12:04:56;;;;;;;;;;;;;;;20.62;45.05;95868.88;1720201;81;20240;-58
2021/05/12 12:07:18;;;;;;;;;;;;;;;20.59;45.60;95893.81;1716670;82;20221;-58
2021/05/12 12:09:44;;;;;;;;;;;;;;;20.67;46.20;95879.70;1720424;81;20182;-58
2021/05/12 12:12:11;;;;;;;;;;;;;;;20.75;46.33;95869.03;1708740;81;21673;-55
2021/05/12 12:14:37;;;;;;;;;;;;;;;20.82;45.35;95884.09;1720173;82;20231;-55
2021/05/12 12:17:11;;;;;;;;;;;;;;;20.76;45.70;95848.78;1723517;81;20531;-59
2021/05/12 12:19:37;;;;;;;;;;;;;;;20.83;46.51;95860.18;1709258;82;20205;-60
2021/05/12 12:22:03;;;;;;;;;;;;;;;20.88;45.00;95842.48;1712146;81;20252;-60
2021/05/12 12:24:30;;;;;;;;;;;;;;;20.97;45.22;95837.38;1715338;81;21590;-60
2021/05/12 12:26:58;;;;;;;;;;;;;;;20.95;44.31;95851.24;1722871;81;20227;-60
2021/05/12 12:29:28;;;;;;;;;;;;;;;20.96;45.05;95841.83;1728517;81;20131;-60
2021/05/12 12:31:59;;;;;;;;;;;;;;;21.05;44.82;95858.82;1713961;82;20215;-59
2021/05/12 12:34:33;;;;;;;;;;;;;;;21.09;44.25;95842.43;1719786;82;20228;-60
2021/05/12 12:37:15;;;;;;;;;;;;;;;20.95;43.76;95842.84;1725122;80;20572;-60
2021/05/12 12:39:56;;;;;;;;;;;;;;;20.87;45.21;95841.67;1730101;80;20228;-60
2021/05/12 12:42:30;;;;;;;;;;;;;;;20.99;44.53;95831.41;1731807;80;20228;-60
2021/05/12 12:45:00;;;;;;;;;;;;;;;21.11;43.13;95826.41;1731498;79;20228;-60
2021/05/12 12:47:27;;;;;;;;;;;;;;;21.07;42.75;95837.02;1737095;80;20225;-60
2021/05/12 12:49:58;;;;;;;;;;;;;;;20.96;42.95;95833.11;1736645;82;21496;-60
2021/05/12 12:52:41;;;;;;;;;;;;;;;20.83;43.46;95839.60;1724760;80;20228;-61
2021/05/12 12:55:15;;;;;;;;;;;;;;;20.80;43.38;95846.05;1738433;82;20588;-60
2021/05/12 12:57:58;;;;;;;;;;;;;;;20.75;44.04;95821.58;1731345;80;20292;-61
2021/05/12 13:00:30;;;;;;;;;;;;;;;20.72;44.69;95832.53;1721968;80;20523;-60
2021/05/12 13:03:21;;;;;;;;;;;;;;;20.64;44.39;95841.89;1742334;80;21221;-61
2021/05/12 13:05:54;;;;;;;;;;;;;;;20.50;45.27;95833.52;1737698;80;20210;-61
2021/05/12 13:08:24;;;;;;;;;;;;;;;20.43;44.18;95831.30;1727707;80;20228;-61
2021/05/12 13:11:06;;;;;;;;;;;;;;;20.37;45.98;95825.78;1739920;82;20229;-59